sensor_id;sensor_type;location;lat;lon;timestamp;P1;durP1;ratioP1;P2;durP2;ratioP2
75912;SDS011;64592;52.168;21.040;2023-04-28T00:02:19;13.00;;;8.10;;
75912;SDS011;64592;52.168;21.040;2023-04-28T00:07:22;15.73;;;7.90;;
75912;SDS011;64592;52.168;21.040;2023-04-28T00:12:24;20.42;;;8.63;;
75912;SDS011;64592;52.168;21.040;2023-04-28T00:17:26;14.20;;;7.93;;
75912;SDS011;64592;52.168;21.040;2023-04-28T00:22:29;15.80;;;8.23;;
75912;SDS011;64592;52.168;21.040;2023-04-28T00:27:31;19.10;;;9.23;;
75912;SDS011;64592;52.168;21.040;2023-04-28T00:32:33;18.83;;;9.00;;
75912;SDS011;64592;52.168;21.040;2023-04-28T00:37:36;16.92;;;10.45;;
75912;SDS011;64592;52.168;21.040;2023-04-28T00:42:39;20.27;;;9.38;;
75912;SDS011;64592;52.168;21.040;2023-04-28T00:47:40;15.93;;;8.25;;
75912;SDS011;64592;52.168;21.040;2023-04-28T00:52:43;22.70;;;9.82;;
75912;SDS011;64592;52.168;21.040;2023-04-28T00:57:46;20.30;;;8.55;;
75912;SDS011;64592;52.168;21.040;2023-04-28T01:02:48;19.42;;;9.55;;
75912;SDS011;64592;52.168;21.040;2023-04-28T01:07:52;16.80;;;8.80;;
75912;SDS011;64592;52.168;21.040;2023-04-28T01:12:54;19.13;;;9.10;;
75912;SDS011;64592;52.168;21.040;2023-04-28T01:17:56;18.27;;;8.77;;
75912;SDS011;64592;52.168;21.040;2023-04-28T01:22:59;16.65;;;8.82;;
75912;SDS011;64592;52.168;21.040;2023-04-28T01:28:02;19.40;;;10.10;;
75912;SDS011;64592;52.168;21.040;2023-04-28T01:33:04;20.23;;;8.95;;
75912;SDS011;64592;52.168;21.040;2023-04-28T01:38:05;24.05;;;10.35;;
75912;SDS011;64592;52.168;21.040;2023-04-28T01:43:09;22.00;;;9.90;;
75912;SDS011;64592;52.168;21.040;2023-04-28T01:48:10;16.85;;;8.98;;
75912;SDS011;64592;52.168;21.040;2023-04-28T01:53:12;22.08;;;10.50;;
75912;SDS011;64592;52.168;21.040;2023-04-28T01:58:15;14.25;;;9.60;;
75912;SDS011;64592;52.168;21.040;2023-04-28T02:03:17;26.55;;;10.00;;
75912;SDS011;64592;52.168;21.040;2023-04-28T02:08:19;17.42;;;10.85;;
75912;SDS011;64592;52.168;21.040;2023-04-28T02:13:22;19.75;;;9.85;;
75912;SDS011;64592;52.168;21.040;2023-04-28T02:18:24;18.50;;;9.40;;
75912;SDS011;64592;52.168;21.040;2023-04-28T02:23:25;18.42;;;8.98;;
75912;SDS011;64592;52.168;21.040;2023-04-28T02:28:28;18.02;;;8.93;;
75912;SDS011;64592;52.168;21.040;2023-04-28T02:33:30;16.48;;;8.98;;
75912;SDS011;64592;52.168;21.040;2023-04-28T02:38:32;20.05;;;9.85;;
75912;SDS011;64592;52.168;21.040;2023-04-28T02:43:36;17.80;;;9.73;;
75912;SDS011;64592;52.168;21.040;2023-04-28T02:48:37;24.95;;;10.15;;
75912;SDS011;64592;52.168;21.040;2023-04-28T02:53:40;17.20;;;9.23;;
75912;SDS011;64592;52.168;21.040;2023-04-28T02:58:43;15.60;;;8.93;;
75912;SDS011;64592;52.168;21.040;2023-04-28T03:03:45;27.65;;;10.35;;
75912;SDS011;64592;52.168;21.040;2023-04-28T03:08:46;17.38;;;8.32;;
75912;SDS011;64592;52.168;21.040;2023-04-28T03:13:50;17.25;;;9.68;;
75912;SDS011;64592;52.168;21.040;2023-04-28T03:18:52;18.38;;;9.15;;
75912;SDS011;64592;52.168;21.040;2023-04-28T03:23:54;17.83;;;9.30;;
75912;SDS011;64592;52.168;21.040;2023-04-28T03:28:57;15.75;;;8.63;;
75912;SDS011;64592;52.168;21.040;2023-04-28T03:33:59;18.88;;;9.27;;
75912;SDS011;64592;52.168;21.040;2023-04-28T03:39:02;14.07;;;8.27;;
75912;SDS011;64592;52.168;21.040;2023-04-28T03:44:05;14.20;;;9.05;;
75912;SDS011;64592;52.168;21.040;2023-04-28T03:49:07;16.17;;;8.13;;
75912;SDS011;64592;52.168;21.040;2023-04-28T03:54:09;19.98;;;9.18;;
75912;SDS011;64592;52.168;21.040;2023-04-28T03:59:12;20.15;;;10.35;;
75912;SDS011;64592;52.168;21.040;2023-04-28T04:04:13;18.40;;;8.98;;
75912;SDS011;64592;52.168;21.040;2023-04-28T04:09:15;20.48;;;9.00;;
75912;SDS011;64592;52.168;21.040;2023-04-28T04:14:18;20.88;;;9.95;;
75912;SDS011;64592;52.168;21.040;2023-04-28T04:19:20;16.13;;;8.43;;
75912;SDS011;64592;52.168;21.040;2023-04-28T04:24:23;17.73;;;8.30;;
75912;SDS011;64592;52.168;21.040;2023-04-28T04:29:26;19.35;;;8.65;;
75912;SDS011;64592;52.168;21.040;2023-04-28T04:34:27;20.60;;;9.23;;
75912;SDS011;64592;52.168;21.040;2023-04-28T04:39:29;17.55;;;8.75;;
75912;SDS011;64592;52.168;21.040;2023-04-28T04:44:32;20.00;;;9.13;;
75912;SDS011;64592;52.168;21.040;2023-04-28T04:49:34;20.77;;;11.00;;
75912;SDS011;64592;52.168;21.040;2023-04-28T04:54:35;20.95;;;9.25;;
75912;SDS011;64592;52.168;21.040;2023-04-28T04:59:38;19.15;;;7.85;;
75912;SDS011;64592;52.168;21.040;2023-04-28T05:04:40;21.27;;;8.48;;
75912;SDS011;64592;52.168;21.040;2023-04-28T05:09:41;18.55;;;8.93;;
75912;SDS011;64592;52.168;21.040;2023-04-28T05:14:44;19.10;;;9.95;;
75912;SDS011;64592;52.168;21.040;2023-04-28T05:19:46;19.92;;;10.18;;
75912;SDS011;64592;52.168;21.040;2023-04-28T05:24:48;17.08;;;9.20;;
75912;SDS011;64592;52.168;21.040;2023-04-28T05:29:51;16.98;;;10.05;;
75912;SDS011;64592;52.168;21.040;2023-04-28T05:34:52;16.90;;;10.50;;
75912;SDS011;64592;52.168;21.040;2023-04-28T05:39:54;17.63;;;9.55;;
75912;SDS011;64592;52.168;21.040;2023-04-28T05:44:57;19.85;;;10.27;;
75912;SDS011;64592;52.168;21.040;2023-04-28T05:49:59;18.42;;;9.95;;
75912;SDS011;64592;52.168;21.040;2023-04-28T05:55:00;16.30;;;9.35;;
75912;SDS011;64592;52.168;21.040;2023-04-28T06:00:04;17.10;;;10.23;;
75912;SDS011;64592;52.168;21.040;2023-04-28T06:05:07;18.70;;;9.70;;
75912;SDS011;64592;52.168;21.040;2023-04-28T06:10:10;18.88;;;9.57;;
75912;SDS011;64592;52.168;21.040;2023-04-28T06:15:13;16.02;;;10.57;;
75912;SDS011;64592;52.168;21.040;2023-04-28T06:20:14;22.25;;;10.43;;
75912;SDS011;64592;52.168;21.040;2023-04-28T06:25:16;15.43;;;10.15;;
75912;SDS011;64592;52.168;21.040;2023-04-28T06:30:19;17.52;;;9.23;;
75912;SDS011;64592;52.168;21.040;2023-04-28T06:35:22;20.77;;;10.57;;
75912;SDS011;64592;52.168;21.040;2023-04-28T06:40:24;17.10;;;8.63;;
75912;SDS011;64592;52.168;21.040;2023-04-28T06:45:27;16.17;;;8.50;;
75912;SDS011;64592;52.168;21.040;2023-04-28T06:50:28;17.13;;;7.90;;
75912;SDS011;64592;52.168;21.040;2023-04-28T06:55:30;10.10;;;6.28;;
75912;SDS011;64592;52.168;21.040;2023-04-28T07:00:34;11.35;;;6.75;;
75912;SDS011;64592;52.168;21.040;2023-04-28T07:05:36;13.13;;;6.22;;
75912;SDS011;64592;52.168;21.040;2023-04-28T07:10:37;12.02;;;5.93;;
75912;SDS011;64592;52.168;21.040;2023-04-28T07:15:40;9.90;;;5.63;;
75912;SDS011;64592;52.168;21.040;2023-04-28T07:20:42;8.32;;;4.72;;
75912;SDS011;64592;52.168;21.040;2023-04-28T07:25:44;9.60;;;5.43;;
75912;SDS011;64592;52.168;21.040;2023-04-28T07:30:47;9.38;;;4.70;;
75912;SDS011;64592;52.168;21.040;2023-04-28T07:35:48;9.35;;;4.75;;
75912;SDS011;64592;52.168;21.040;2023-04-28T07:40:51;6.57;;;3.03;;
75912;SDS011;64592;52.168;21.040;2023-04-28T07:45:54;6.25;;;2.80;;
75912;SDS011;64592;52.168;21.040;2023-04-28T07:50:56;7.10;;;2.67;;
75912;SDS011;64592;52.168;21.040;2023-04-28T07:55:58;5.03;;;2.25;;
75912;SDS011;64592;52.168;21.040;2023-04-28T08:01:01;4.60;;;2.92;;
75912;SDS011;64592;52.168;21.040;2023-04-28T08:06:03;3.30;;;2.00;;
75912;SDS011;64592;52.168;21.040;2023-04-28T08:11:05;5.30;;;2.53;;
75912;SDS011;64592;52.168;21.040;2023-04-28T08:16:08;5.75;;;2.75;;
75912;SDS011;64592;52.168;21.040;2023-04-28T08:21:10;6.03;;;2.85;;
75912;SDS011;64592;52.168;21.040;2023-04-28T08:26:12;4.28;;;2.03;;
75912;SDS011;64592;52.168;21.040;2023-04-28T08:31:15;7.57;;;2.70;;
75912;SDS011;64592;52.168;21.040;2023-04-28T08:36:17;3.95;;;2.35;;
75912;SDS011;64592;52.168;21.040;2023-04-28T08:41:19;4.70;;;2.90;;
75912;SDS011;64592;52.168;21.040;2023-04-28T08:46:22;4.75;;;2.72;;
75912;SDS011;64592;52.168;21.040;2023-04-28T08:51:30;6.18;;;3.33;;
75912;SDS011;64592;52.168;21.040;2023-04-28T08:56:34;6.68;;;3.13;;
75912;SDS011;64592;52.168;21.040;2023-04-28T09:01:38;8.25;;;3.40;;
75912;SDS011;64592;52.168;21.040;2023-04-28T09:06:39;5.25;;;3.05;;
75912;SDS011;64592;52.168;21.040;2023-04-28T09:11:49;6.97;;;3.25;;
75912;SDS011;64592;52.168;21.040;2023-04-28T09:16:52;4.78;;;3.00;;
75912;SDS011;64592;52.168;21.040;2023-04-28T09:21:55;5.25;;;2.47;;
75912;SDS011;64592;52.168;21.040;2023-04-28T09:26:57;5.65;;;2.42;;
75912;SDS011;64592;52.168;21.040;2023-04-28T09:32:13;5.70;;;2.58;;
75912;SDS011;64592;52.168;21.040;2023-04-28T09:37:16;6.65;;;2.83;;
75912;SDS011;64592;52.168;21.040;2023-04-28T09:42:32;4.78;;;2.88;;
75912;SDS011;64592;52.168;21.040;2023-04-28T09:47:37;7.82;;;3.45;;
75912;SDS011;64592;52.168;21.040;2023-04-28T09:52:40;7.80;;;2.45;;
75912;SDS011;64592;52.168;21.040;2023-04-28T09:57:43;5.35;;;2.85;;
75912;SDS011;64592;52.168;21.040;2023-04-28T10:02:49;4.25;;;2.58;;
75912;SDS011;64592;52.168;21.040;2023-04-28T10:07:51;4.68;;;2.22;;
75912;SDS011;64592;52.168;21.040;2023-04-28T10:12:54;4.95;;;2.80;;
75912;SDS011;64592;52.168;21.040;2023-04-28T10:17:58;4.25;;;2.53;;
75912;SDS011;64592;52.168;21.040;2023-04-28T10:28:31;6.35;;;3.30;;
75912;SDS011;64592;52.168;21.040;2023-04-28T10:33:35;4.50;;;2.28;;
75912;SDS011;64592;52.168;21.040;2023-04-28T11:00:36;3.75;;;2.20;;
75912;SDS011;64592;52.168;21.040;2023-04-28T11:05:40;5.93;;;2.03;;
75912;SDS011;64592;52.168;21.040;2023-04-28T11:11:22;6.05;;;2.25;;
75912;SDS011;64592;52.168;21.040;2023-04-28T11:16:25;3.90;;;2.53;;
75912;SDS011;64592;52.168;21.040;2023-04-28T11:21:28;4.13;;;2.10;;
75912;SDS011;64592;52.168;21.040;2023-04-28T11:26:35;5.18;;;2.40;;
75912;SDS011;64592;52.168;21.040;2023-04-28T11:31:37;5.55;;;2.72;;
75912;SDS011;64592;52.168;21.040;2023-04-28T11:36:41;3.13;;;2.20;;
75912;SDS011;64592;52.168;21.040;2023-04-28T11:41:43;6.43;;;2.70;;
75912;SDS011;64592;52.168;21.040;2023-04-28T11:46:46;6.47;;;2.70;;
75912;SDS011;64592;52.168;21.040;2023-04-28T11:51:51;5.60;;;2.30;;
75912;SDS011;64592;52.168;21.040;2023-04-28T11:56:54;5.55;;;2.65;;
75912;SDS011;64592;52.168;21.040;2023-04-28T12:01:58;4.57;;;2.90;;
75912;SDS011;64592;52.168;21.040;2023-04-28T12:07:03;4.32;;;2.83;;
75912;SDS011;64592;52.168;21.040;2023-04-28T12:12:07;5.65;;;2.83;;
75912;SDS011;64592;52.168;21.040;2023-04-28T12:17:21;5.68;;;2.78;;
75912;SDS011;64592;52.168;21.040;2023-04-28T12:22:25;5.40;;;3.45;;
75912;SDS011;64592;52.168;21.040;2023-04-28T12:27:27;4.22;;;2.88;;
75912;SDS011;64592;52.168;21.040;2023-04-28T12:32:36;5.88;;;2.90;;
75912;SDS011;64592;52.168;21.040;2023-04-28T12:37:42;5.35;;;3.28;;
75912;SDS011;64592;52.168;21.040;2023-04-28T12:47:46;7.15;;;3.22;;
75912;SDS011;64592;52.168;21.040;2023-04-28T12:52:50;5.75;;;3.80;;
75912;SDS011;64592;52.168;21.040;2023-04-28T12:57:51;9.02;;;3.75;;
75912;SDS011;64592;52.168;21.040;2023-04-28T13:02:53;6.85;;;3.42;;
75912;SDS011;64592;52.168;21.040;2023-04-28T13:07:56;7.63;;;4.35;;
75912;SDS011;64592;52.168;21.040;2023-04-28T13:12:58;5.97;;;3.55;;
75912;SDS011;64592;52.168;21.040;2023-04-28T13:18:00;4.85;;;3.60;;
75912;SDS011;64592;52.168;21.040;2023-04-28T13:23:03;6.63;;;3.95;;
75912;SDS011;64592;52.168;21.040;2023-04-28T13:28:05;8.48;;;4.15;;
75912;SDS011;64592;52.168;21.040;2023-04-28T13:33:07;5.38;;;3.78;;
75912;SDS011;64592;52.168;21.040;2023-04-28T13:38:10;6.20;;;3.75;;
75912;SDS011;64592;52.168;21.040;2023-04-28T13:43:11;7.50;;;4.05;;
75912;SDS011;64592;52.168;21.040;2023-04-28T13:48:13;8.57;;;4.10;;
75912;SDS011;64592;52.168;21.040;2023-04-28T13:53:16;6.57;;;4.07;;
75912;SDS011;64592;52.168;21.040;2023-04-28T13:58:18;6.22;;;4.30;;
75912;SDS011;64592;52.168;21.040;2023-04-28T14:03:20;8.82;;;5.05;;
75912;SDS011;64592;52.168;21.040;2023-04-28T14:08:24;8.68;;;5.55;;
75912;SDS011;64592;52.168;21.040;2023-04-28T14:13:26;5.43;;;3.90;;
75912;SDS011;64592;52.168;21.040;2023-04-28T14:18:29;7.45;;;4.65;;
75912;SDS011;64592;52.168;21.040;2023-04-28T14:23:34;7.05;;;4.72;;
75912;SDS011;64592;52.168;21.040;2023-04-28T14:28:35;6.65;;;4.47;;
75912;SDS011;64592;52.168;21.040;2023-04-28T14:33:37;7.55;;;3.92;;
75912;SDS011;64592;52.168;21.040;2023-04-28T14:38:40;7.80;;;4.47;;
75912;SDS011;64592;52.168;21.040;2023-04-28T14:43:42;7.97;;;4.75;;
75912;SDS011;64592;52.168;21.040;2023-04-28T14:48:44;7.50;;;4.20;;
75912;SDS011;64592;52.168;21.040;2023-04-28T14:53:47;6.82;;;3.90;;
75912;SDS011;64592;52.168;21.040;2023-04-28T14:58:48;6.05;;;3.97;;
75912;SDS011;64592;52.168;21.040;2023-04-28T15:03:50;7.05;;;4.30;;
75912;SDS011;64592;52.168;21.040;2023-04-28T15:08:53;6.95;;;4.53;;
75912;SDS011;64592;52.168;21.040;2023-04-28T15:13:55;7.88;;;5.05;;
75912;SDS011;64592;52.168;21.040;2023-04-28T15:18:56;5.80;;;4.40;;
75912;SDS011;64592;52.168;21.040;2023-04-28T15:23:59;7.30;;;4.03;;
75912;SDS011;64592;52.168;21.040;2023-04-28T15:29:01;10.73;;;4.78;;
75912;SDS011;64592;52.168;21.040;2023-04-28T15:34:03;4.97;;;3.88;;
75912;SDS011;64592;52.168;21.040;2023-04-28T15:39:06;7.60;;;4.88;;
75912;SDS011;64592;52.168;21.040;2023-04-28T15:44:09;5.13;;;4.38;;
75912;SDS011;64592;52.168;21.040;2023-04-28T15:49:10;7.95;;;4.22;;
75912;SDS011;64592;52.168;21.040;2023-04-28T15:54:14;7.70;;;4.72;;
75912;SDS011;64592;52.168;21.040;2023-04-28T15:59:16;11.10;;;5.05;;
75912;SDS011;64592;52.168;21.040;2023-04-28T16:04:18;6.50;;;4.20;;
75912;SDS011;64592;52.168;21.040;2023-04-28T16:09:21;9.15;;;4.57;;
75912;SDS011;64592;52.168;21.040;2023-04-28T16:14:22;6.07;;;4.07;;
75912;SDS011;64592;52.168;21.040;2023-04-28T16:19:24;8.25;;;4.45;;
75912;SDS011;64592;52.168;21.040;2023-04-28T16:24:27;5.90;;;4.20;;
75912;SDS011;64592;52.168;21.040;2023-04-28T16:29:29;7.72;;;4.50;;
75912;SDS011;64592;52.168;21.040;2023-04-28T16:34:30;10.60;;;4.65;;
75912;SDS011;64592;52.168;21.040;2023-04-28T16:39:34;6.95;;;5.20;;
75912;SDS011;64592;52.168;21.040;2023-04-28T16:44:35;8.20;;;4.13;;
75912;SDS011;64592;52.168;21.040;2023-04-28T16:49:37;7.43;;;4.05;;
75912;SDS011;64592;52.168;21.040;2023-04-28T16:54:40;7.70;;;3.85;;
75912;SDS011;64592;52.168;21.040;2023-04-28T16:59:41;10.98;;;3.92;;
75912;SDS011;64592;52.168;21.040;2023-04-28T17:04:43;5.88;;;3.97;;
75912;SDS011;64592;52.168;21.040;2023-04-28T17:09:46;9.93;;;4.13;;
75912;SDS011;64592;52.168;21.040;2023-04-28T17:14:48;7.05;;;4.88;;
75912;SDS011;64592;52.168;21.040;2023-04-28T17:19:51;6.75;;;4.25;;
75912;SDS011;64592;52.168;21.040;2023-04-28T17:24:54;6.30;;;4.28;;
75912;SDS011;64592;52.168;21.040;2023-04-28T17:29:56;11.02;;;4.70;;
75912;SDS011;64592;52.168;21.040;2023-04-28T17:34:58;5.78;;;4.07;;
75912;SDS011;64592;52.168;21.040;2023-04-28T17:40:01;5.35;;;4.15;;
75912;SDS011;64592;52.168;21.040;2023-04-28T17:45:04;11.05;;;4.78;;
75912;SDS011;64592;52.168;21.040;2023-04-28T17:50:07;10.02;;;5.80;;
75912;SDS011;64592;52.168;21.040;2023-04-28T17:55:11;7.03;;;4.85;;
75912;SDS011;64592;52.168;21.040;2023-04-28T18:00:13;7.75;;;4.60;;
75912;SDS011;64592;52.168;21.040;2023-04-28T18:05:14;10.30;;;5.80;;
75912;SDS011;64592;52.168;21.040;2023-04-28T18:10:18;9.35;;;4.68;;
75912;SDS011;64592;52.168;21.040;2023-04-28T18:15:19;11.23;;;4.50;;
75912;SDS011;64592;52.168;21.040;2023-04-28T18:20:21;7.95;;;4.53;;
75912;SDS011;64592;52.168;21.040;2023-04-28T18:25:24;9.90;;;5.78;;
75912;SDS011;64592;52.168;21.040;2023-04-28T18:30:26;12.63;;;5.05;;
75912;SDS011;64592;52.168;21.040;2023-04-28T18:35:36;7.30;;;5.30;;
75912;SDS011;64592;52.168;21.040;2023-04-28T18:40:39;11.57;;;6.13;;
75912;SDS011;64592;52.168;21.040;2023-04-28T18:45:41;12.30;;;6.05;;
75912;SDS011;64592;52.168;21.040;2023-04-28T18:50:43;12.10;;;5.95;;
75912;SDS011;64592;52.168;21.040;2023-04-28T18:55:48;9.75;;;5.78;;
75912;SDS011;64592;52.168;21.040;2023-04-28T19:00:49;12.35;;;6.18;;
75912;SDS011;64592;52.168;21.040;2023-04-28T19:05:52;11.38;;;5.85;;
75912;SDS011;64592;52.168;21.040;2023-04-28T19:10:57;11.88;;;6.55;;
75912;SDS011;64592;52.168;21.040;2023-04-28T19:15:58;10.32;;;6.65;;
75912;SDS011;64592;52.168;21.040;2023-04-28T19:21:01;13.73;;;8.32;;
75912;SDS011;64592;52.168;21.040;2023-04-28T19:26:06;12.75;;;7.43;;
75912;SDS011;64592;52.168;21.040;2023-04-28T19:31:08;14.13;;;8.05;;
75912;SDS011;64592;52.168;21.040;2023-04-28T19:36:10;15.27;;;8.55;;
75912;SDS011;64592;52.168;21.040;2023-04-28T19:41:13;15.15;;;8.77;;
75912;SDS011;64592;52.168;21.040;2023-04-28T19:46:15;16.02;;;9.43;;
75912;SDS011;64592;52.168;21.040;2023-04-28T19:51:17;17.05;;;8.52;;
75912;SDS011;64592;52.168;21.040;2023-04-28T19:56:20;20.92;;;11.00;;
75912;SDS011;64592;52.168;21.040;2023-04-28T20:01:21;19.27;;;10.00;;
75912;SDS011;64592;52.168;21.040;2023-04-28T20:06:23;16.83;;;9.77;;
75912;SDS011;64592;52.168;21.040;2023-04-28T20:11:26;18.98;;;9.73;;
75912;SDS011;64592;52.168;21.040;2023-04-28T20:16:28;17.75;;;9.88;;
75912;SDS011;64592;52.168;21.040;2023-04-28T20:21:30;16.17;;;8.60;;
75912;SDS011;64592;52.168;21.040;2023-04-28T20:26:35;16.52;;;10.25;;
75912;SDS011;64592;52.168;21.040;2023-04-28T20:31:37;16.00;;;10.10;;
75912;SDS011;64592;52.168;21.040;2023-04-28T20:36:38;15.52;;;9.20;;
75912;SDS011;64592;52.168;21.040;2023-04-28T20:41:42;21.85;;;10.05;;
75912;SDS011;64592;52.168;21.040;2023-04-28T20:46:44;16.27;;;9.07;;
75912;SDS011;64592;52.168;21.040;2023-04-28T20:51:45;17.52;;;9.55;;
75912;SDS011;64592;52.168;21.040;2023-04-28T20:56:48;15.65;;;8.10;;
75912;SDS011;64592;52.168;21.040;2023-04-28T21:01:50;14.88;;;10.05;;
75912;SDS011;64592;52.168;21.040;2023-04-28T21:06:52;16.27;;;9.00;;
75912;SDS011;64592;52.168;21.040;2023-04-28T21:11:55;16.45;;;9.27;;
75912;SDS011;64592;52.168;21.040;2023-04-28T21:16:56;20.15;;;9.70;;
75912;SDS011;64592;52.168;21.040;2023-04-28T21:21:58;23.23;;;10.75;;
75912;SDS011;64592;52.168;21.040;2023-04-28T21:27:01;17.25;;;10.63;;
75912;SDS011;64592;52.168;21.040;2023-04-28T21:32:03;21.92;;;10.70;;
75912;SDS011;64592;52.168;21.040;2023-04-28T21:37:05;17.63;;;10.10;;
75912;SDS011;64592;52.168;21.040;2023-04-28T21:42:08;20.40;;;10.27;;
75912;SDS011;64592;52.168;21.040;2023-04-28T21:47:10;17.60;;;9.98;;
75912;SDS011;64592;52.168;21.040;2023-04-28T21:52:12;26.30;;;10.88;;
75912;SDS011;64592;52.168;21.040;2023-04-28T21:57:15;18.75;;;9.70;;
75912;SDS011;64592;52.168;21.040;2023-04-28T22:02:17;22.13;;;11.07;;
75912;SDS011;64592;52.168;21.040;2023-04-28T22:07:19;23.88;;;11.65;;
75912;SDS011;64592;52.168;21.040;2023-04-28T22:12:22;20.20;;;10.32;;
75912;SDS011;64592;52.168;21.040;2023-04-28T22:17:23;21.55;;;11.63;;
75912;SDS011;64592;52.168;21.040;2023-04-28T22:22:26;21.55;;;10.80;;
75912;SDS011;64592;52.168;21.040;2023-04-28T22:27:29;20.17;;;10.93;;
75912;SDS011;64592;52.168;21.040;2023-04-28T22:32:31;20.15;;;10.98;;
75912;SDS011;64592;52.168;21.040;2023-04-28T22:37:33;19.45;;;11.02;;
75912;SDS011;64592;52.168;21.040;2023-04-28T22:42:37;16.77;;;10.82;;
75912;SDS011;64592;52.168;21.040;2023-04-28T22:47:40;16.90;;;10.45;;
75912;SDS011;64592;52.168;21.040;2023-04-28T22:52:41;21.25;;;10.80;;
75912;SDS011;64592;52.168;21.040;2023-04-28T22:57:44;22.02;;;11.30;;
75912;SDS011;64592;52.168;21.040;2023-04-28T23:02:46;18.65;;;10.82;;
75912;SDS011;64592;52.168;21.040;2023-04-28T23:07:48;20.42;;;11.93;;
75912;SDS011;64592;52.168;21.040;2023-04-28T23:12:51;20.45;;;11.05;;
75912;SDS011;64592;52.168;21.040;2023-04-28T23:17:53;20.77;;;11.02;;
75912;SDS011;64592;52.168;21.040;2023-04-28T23:22:54;22.23;;;11.43;;
75912;SDS011;64592;52.168;21.040;2023-04-28T23:27:57;23.15;;;11.55;;
75912;SDS011;64592;52.168;21.040;2023-04-28T23:32:59;24.17;;;13.43;;
75912;SDS011;64592;52.168;21.040;2023-04-28T23:38:00;23.23;;;11.93;;
75912;SDS011;64592;52.168;21.040;2023-04-28T23:43:03;20.73;;;11.70;;
75912;SDS011;64592;52.168;21.040;2023-04-28T23:48:05;20.65;;;10.75;;
75912;SDS011;64592;52.168;21.040;2023-04-28T23:53:07;18.25;;;11.27;;
75912;SDS011;64592;52.168;21.040;2023-04-28T23:58:10;21.67;;;11.05;;
